Time;durP1;ratioP1;P1;durP2;ratioP2;P2;SDS_P1;SDS_P2;PMS_P1;PMS_P2;Temp;Humidity;BMP_temperature;BMP_pressure;BME280_temperature;BME280_humidity;BME280_pressure;Samples;Min_cycle;Max_cycle;Signal;HPM_P1;HPM_P2
2021/04/25 00:01:51;;;;;;;9.40;6.83;;;12.70;77.70;20.40;99808.00;;;;5017361;28;20206;-70
2021/04/25 00:04:17;;;;;;;8.67;6.47;;;12.80;77.80;20.40;99819.00;;;;5018442;28;20174;-70
2021/04/25 00:06:43;;;;;;;7.83;6.50;;;12.70;77.60;20.50;99811.00;;;;5051036;28;20736;-70
2021/04/25 00:09:09;;;;;;;7.47;6.27;;;12.70;77.70;20.50;99804.00;;;;5051504;28;20182;-70
2021/04/25 00:11:35;;;;;;;7.90;6.13;;;12.80;77.80;20.50;99805.00;;;;5050859;28;20468;-71
2021/04/25 00:14:00;;;;;;;8.50;6.07;;;12.70;77.80;20.40;99795.00;;;;5033909;28;20430;-72
2021/04/25 00:16:28;;;;;;;7.87;6.10;;;12.70;77.60;20.30;99797.00;;;;5052042;28;20208;-71
2021/04/25 00:18:55;;;;;;;6.43;5.60;;;12.70;77.70;20.40;99782.00;;;;5050859;28;20205;-71
2021/04/25 00:21:22;;;;;;;8.73;6.80;;;12.70;77.70;20.60;99789.00;;;;5033693;28;20431;-70
2021/04/25 00:23:49;;;;;;;7.17;5.93;;;12.70;77.80;20.20;99781.00;;;;5052137;28;20515;-71
2021/04/25 00:26:15;;;;;;;7.80;6.40;;;12.70;77.80;20.30;99779.00;;;;5051073;28;20462;-70
2021/04/25 00:28:41;;;;;;;9.53;6.70;;;12.70;77.80;20.50;99781.00;;;;5049956;28;21040;-70
2021/04/25 00:31:07;;;;;;;6.90;5.73;;;12.70;77.80;20.50;99779.00;;;;5051990;28;20506;-71
2021/04/25 00:33:33;;;;;;;8.07;6.53;;;12.70;77.70;20.30;99767.00;;;;5017151;28;20233;-71
2021/04/25 00:35:58;;;;;;;7.53;6.20;;;12.70;77.80;20.40;99774.00;;;;5017262;28;20178;-71
2021/04/25 00:38:24;;;;;;;6.90;5.90;;;12.70;77.80;20.50;99760.00;;;;5051056;28;20224;-71
2021/04/25 00:40:50;;;;;;;8.00;6.77;;;12.70;77.80;20.40;99763.00;;;;5001686;28;20182;-71
2021/04/25 00:43:15;;;;;;;8.90;6.50;;;12.70;77.80;20.40;99753.00;;;;5049580;28;20201;-70
2021/04/25 00:45:41;;;;;;;10.40;7.50;;;12.60;77.70;20.60;99757.00;;;;5051402;28;20578;-69
2021/04/25 00:48:07;;;;;;;8.27;6.00;;;12.70;77.80;20.60;99757.00;;;;5033719;28;20198;-70
2021/04/25 00:50:33;;;;;;;7.80;6.40;;;12.60;77.80;20.40;99759.00;;;;5033241;28;20178;-70
2021/04/25 00:52:59;;;;;;;9.30;7.33;;;12.70;78.00;20.40;99768.00;;;;5033246;28;20206;-70
2021/04/25 00:55:27;;;;;;;8.70;6.60;;;12.70;78.00;20.40;99759.00;;;;5033725;28;20192;-71
2021/04/25 00:57:54;;;;;;;8.87;7.00;;;12.70;78.00;20.40;99760.00;;;;5033063;28;20479;-70
2021/04/25 01:00:20;;;;;;;8.97;7.33;;;12.60;78.00;20.50;99760.00;;;;5033799;28;20441;-71
2021/04/25 01:02:45;;;;;;;8.60;6.50;;;12.60;77.90;20.50;99760.00;;;;5032979;28;20832;-71
2021/04/25 01:05:13;;;;;;;8.50;6.97;;;12.60;77.90;20.50;99765.00;;;;5050041;28;20407;-70
2021/04/25 01:07:38;;;;;;;7.83;6.63;;;12.60;78.00;20.40;99761.00;;;;4999764;28;20947;-70
2021/04/25 01:10:05;;;;;;;8.03;6.60;;;12.60;78.00;20.40;99754.00;;;;5016209;28;20422;-71
2021/04/25 01:12:31;;;;;;;8.43;6.63;;;12.60;78.00;20.30;99753.00;;;;5032578;28;20232;-70
2021/04/25 01:14:57;;;;;;;8.27;6.97;;;12.60;78.00;20.40;99757.00;;;;5049689;28;20407;-70
2021/04/25 01:17:22;;;;;;;11.03;7.00;;;12.60;78.10;20.30;99754.00;;;;5050278;28;20431;-70
2021/04/25 01:19:48;;;;;;;9.27;7.77;;;12.60;78.20;20.40;99757.00;;;;5032870;28;20213;-70
2021/04/25 01:22:14;;;;;;;8.50;7.27;;;12.60;78.20;20.20;99750.00;;;;5049358;28;20695;-70
2021/04/25 01:24:40;;;;;;;8.50;7.13;;;12.60;78.10;20.20;99753.00;;;;5015665;28;20660;-70
2021/04/25 01:27:06;;;;;;;8.23;7.03;;;12.60;78.20;20.30;99743.00;;;;5050964;28;20202;-71
2021/04/25 01:29:31;;;;;;;10.80;7.80;;;12.50;78.10;20.30;99759.00;;;;5016457;28;20413;-70
2021/04/25 01:31:57;;;;;;;10.63;8.60;;;12.60;78.10;20.20;99755.00;;;;5049356;28;20205;-71
2021/04/25 01:34:23;;;;;;;9.40;7.83;;;12.60;78.20;20.40;99758.00;;;;5033016;28;20494;-70
2021/04/25 01:36:51;;;;;;;8.83;7.80;;;12.60;78.20;20.40;99753.00;;;;5050449;28;20484;-71
2021/04/25 01:39:17;;;;;;;10.80;8.50;;;12.60;78.30;20.20;99752.00;;;;5049822;28;20244;-71
2021/04/25 01:41:42;;;;;;;10.17;8.10;;;12.60;78.30;20.30;99749.00;;;;5016329;28;20464;-70
2021/04/25 01:44:08;;;;;;;12.17;9.00;;;12.60;78.20;20.30;99748.00;;;;5048442;28;20411;-69
2021/04/25 01:46:34;;;;;;;10.90;8.70;;;12.60;78.30;20.30;99739.00;;;;5032051;28;20749;-70
2021/04/25 01:48:59;;;;;;;10.50;8.43;;;12.60;78.30;20.00;99740.00;;;;5049068;28;20210;-70
2021/04/25 01:51:25;;;;;;;9.63;8.33;;;12.50;78.20;20.30;99739.00;;;;5048653;28;20306;-70
2021/04/25 01:53:51;;;;;;;9.50;7.77;;;12.50;78.20;20.40;99740.00;;;;5031771;28;20671;-70
2021/04/25 01:56:17;;;;;;;12.10;9.10;;;12.50;78.30;20.00;99736.00;;;;5049538;28;20231;-69
2021/04/25 01:58:42;;;;;;;11.20;9.13;;;12.50;78.30;20.00;99733.00;;;;5015378;28;20251;-71
2021/04/25 02:01:08;;;;;;;10.53;9.03;;;12.50;78.30;20.00;99737.00;;;;5049132;28;20265;-69
2021/04/25 02:03:34;;;;;;;8.87;7.43;;;12.50;78.40;20.20;99722.00;;;;5050207;28;20656;-70
2021/04/25 02:05:59;;;;;;;11.90;8.33;;;12.50;78.30;20.20;99714.00;;;;5032323;28;20185;-70
2021/04/25 02:08:25;;;;;;;9.57;8.57;;;12.50;78.30;20.30;99720.00;;;;5049127;28;20189;-70
2021/04/25 02:10:51;;;;;;;11.00;8.70;;;12.50;78.40;20.10;99720.00;;;;5032971;28;20186;-69
2021/04/25 02:13:17;;;;;;;12.00;8.73;;;12.50;78.40;19.90;99722.00;;;;5047858;28;20742;-69
2021/04/25 02:15:43;;;;;;;13.43;8.67;;;12.50;78.50;20.00;99715.00;;;;5048704;28;20189;-69
2021/04/25 02:18:09;;;;;;;10.67;9.00;;;12.40;78.30;20.20;99721.00;;;;5048587;28;20458;-69
2021/04/25 02:20:35;;;;;;;10.23;8.67;;;12.50;78.50;20.20;99713.00;;;;5015459;28;20218;-70
2021/04/25 02:23:00;;;;;;;10.23;8.00;;;12.40;78.40;20.10;99716.00;;;;5032205;28;20431;-69
2021/04/25 02:25:26;;;;;;;11.30;8.30;;;12.40;78.40;20.00;99713.00;;;;5015708;28;20189;-70
2021/04/25 02:27:52;;;;;;;10.80;8.50;;;12.40;78.50;20.00;99710.00;;;;5015166;28;20202;-70
2021/04/25 02:30:26;;;;;;;10.40;8.83;;;12.40;78.50;20.10;99709.00;;;;5048174;28;20400;-69
2021/04/25 02:32:52;;;;;;;9.50;8.10;;;12.40;78.50;20.10;99698.00;;;;5033243;28;20251;-70
2021/04/25 02:35:19;;;;;;;10.40;9.03;;;12.40;78.50;20.20;99683.00;;;;5014706;28;20759;-70
2021/04/25 02:37:45;;;;;;;9.83;8.77;;;12.40;78.50;20.00;99701.00;;;;5015615;28;20954;-70
2021/04/25 02:40:13;;;;;;;10.87;8.77;;;12.40;78.50;20.10;99702.00;;;;5015682;28;20411;-70
2021/04/25 02:42:39;;;;;;;13.23;8.23;;;12.40;78.60;19.80;99707.00;;;;5031612;28;20727;-70
2021/04/25 02:45:06;;;;;;;12.17;8.73;;;12.40;78.50;20.00;99709.00;;;;5048259;28;20408;-71
2021/04/25 02:47:32;;;;;;;10.03;7.97;;;12.40;78.50;19.90;99708.00;;;;5015887;28;20460;-70
2021/04/25 02:49:59;;;;;;;14.87;8.67;;;12.40;78.50;20.10;99703.00;;;;5047979;28;20443;-69
2021/04/25 02:52:27;;;;;;;11.40;8.07;;;12.40;78.50;19.90;99704.00;;;;5032277;28;20442;-70
2021/04/25 02:54:53;;;;;;;13.27;8.60;;;12.40;78.60;20.00;99699.00;;;;5031663;28;20688;-71
2021/04/25 02:57:19;;;;;;;12.23;8.67;;;12.40;78.60;19.90;99694.00;;;;5014992;28;21136;-70
2021/04/25 02:59:45;;;;;;;11.00;8.63;;;12.40;78.60;20.00;99701.00;;;;4998746;28;20517;-70
2021/04/25 03:02:11;;;;;;;10.47;8.87;;;12.40;78.60;19.90;99702.00;;;;5032018;28;20853;-71
2021/04/25 03:04:37;;;;;;;10.00;8.60;;;12.40;78.70;19.80;99703.00;;;;5047449;28;20182;-69
2021/04/25 03:07:02;;;;;;;9.03;8.00;;;12.40;78.60;20.00;99702.00;;;;5049681;28;20202;-71
2021/04/25 03:09:28;;;;;;;13.47;9.10;;;12.40;78.60;19.90;99708.00;;;;5031041;28;20944;-70
2021/04/25 03:11:54;;;;;;;10.90;7.90;;;12.40;78.60;20.00;99695.00;;;;5047730;28;20213;-71
2021/04/25 03:14:19;;;;;;;10.50;8.03;;;12.30;78.50;20.10;99707.00;;;;5031216;28;20193;-70
2021/04/25 03:16:45;;;;;;;10.53;8.40;;;12.30;78.60;19.80;99707.00;;;;5049275;28;20281;-71
2021/04/25 03:19:11;;;;;;;8.67;7.60;;;12.30;78.60;20.00;99705.00;;;;5047714;28;20741;-70
2021/04/25 03:21:37;;;;;;;8.70;7.40;;;12.30;78.50;20.10;99706.00;;;;5047880;28;20213;-71
2021/04/25 03:24:03;;;;;;;11.23;7.77;;;12.30;78.60;20.00;99705.00;;;;5048707;28;20625;-71
2021/04/25 03:26:28;;;;;;;10.33;8.30;;;12.30;78.60;20.20;99698.00;;;;5049712;28;20206;-70
2021/04/25 03:28:54;;;;;;;9.80;8.20;;;12.30;78.50;19.90;99696.00;;;;5049010;28;20953;-70
2021/04/25 03:31:20;;;;;;;9.80;7.80;;;12.30;78.60;20.00;99695.00;;;;5049551;28;20202;-70
2021/04/25 03:33:46;;;;;;;10.57;8.07;;;12.30;78.60;20.10;99693.00;;;;5018712;28;20240;-70
2021/04/25 03:36:11;;;;;;;10.53;8.10;;;12.30;78.60;19.90;99693.00;;;;5052031;28;20177;-71
2021/04/25 03:38:37;;;;;;;9.60;8.30;;;12.30;78.60;19.90;99692.00;;;;5051353;28;20220;-70
2021/04/25 03:41:03;;;;;;;10.20;7.97;;;12.30;78.60;20.10;99691.00;;;;5035019;28;20232;-71
2021/04/25 03:43:28;;;;;;;9.57;7.93;;;12.30;78.60;19.80;99688.00;;;;5053036;28;20178;-72
2021/04/25 03:45:54;;;;;;;10.17;8.37;;;12.30;79.50;20.00;99694.00;;;;5050194;28;20182;-70
2021/04/25 03:48:20;;;;;;;8.90;7.80;;;12.30;78.60;19.90;99697.00;;;;5018457;28;20202;-70
2021/04/25 03:50:46;;;;;;;9.37;8.37;;;12.30;78.70;20.10;99684.00;;;;5034792;28;20428;-70
2021/04/25 03:53:12;;;;;;;9.57;7.87;;;12.30;78.60;20.00;99693.00;;;;5034144;28;20750;-70
2021/04/25 03:55:37;;;;;;;9.73;8.03;;;12.30;78.70;19.90;99677.00;;;;5050986;28;20200;-70
2021/04/25 03:58:04;;;;;;;10.27;7.87;;;12.30;78.70;20.00;99682.00;;;;5034957;28;20209;-70
2021/04/25 04:00:30;;;;;;;9.03;7.50;;;12.30;78.60;19.90;99683.00;;;;5049982;28;20186;-70
2021/04/25 04:02:55;;;;;;;10.63;8.23;;;12.30;78.70;19.90;99689.00;;;;5052428;28;20467;-70
2021/04/25 04:05:21;;;;;;;9.10;7.87;;;12.30;78.70;19.70;99689.00;;;;5052423;28;20182;-69
2021/04/25 04:07:47;;;;;;;8.27;7.43;;;12.20;78.60;19.90;99685.00;;;;5050876;28;20201;-69
2021/04/25 04:10:13;;;;;;;9.47;7.70;;;12.20;78.60;19.80;99694.00;;;;5034193;28;20209;-69
2021/04/25 04:12:39;;;;;;;10.07;7.70;;;12.20;78.60;19.90;99693.00;;;;5050902;28;20190;-70
2021/04/25 04:15:06;;;;;;;9.60;7.27;;;12.20;78.60;19.80;99693.00;;;;5034177;28;20898;-69
2021/04/25 04:17:32;;;;;;;8.57;7.37;;;12.20;78.60;19.80;99688.00;;;;5035173;28;20501;-70
2021/04/25 04:19:57;;;;;;;9.37;7.40;;;12.20;78.70;19.90;99696.00;;;;5034210;28;20446;-69
2021/04/25 04:22:23;;;;;;;10.13;7.10;;;12.20;78.60;19.70;99701.00;;;;5034100;28;20212;-70
2021/04/25 04:24:49;;;;;;;10.17;8.00;;;12.20;79.50;19.80;99702.00;;;;5050935;28;20190;-69
2021/04/25 04:27:14;;;;;;;10.30;7.60;;;12.20;78.60;19.90;99696.00;;;;5051577;28;20198;-70
2021/04/25 04:29:40;;;;;;;9.60;7.17;;;12.20;78.60;19.80;99698.00;;;;5017323;28;20205;-70
2021/04/25 04:32:06;;;;;;;9.63;7.37;;;12.20;78.70;19.50;99701.00;;;;5050677;28;20209;-70
2021/04/25 04:34:32;;;;;;;9.23;6.90;;;12.20;78.70;19.80;99695.00;;;;5050101;28;20225;-70
2021/04/25 04:36:58;;;;;;;10.03;7.40;;;12.20;78.60;19.80;99696.00;;;;5034016;28;20465;-70
2021/04/25 04:39:23;;;;;;;9.83;7.73;;;12.20;78.60;19.70;99694.00;;;;5050352;28;20603;-70
2021/04/25 04:41:50;;;;;;;9.87;7.47;;;12.20;78.60;19.70;99690.00;;;;5049712;28;20649;-70
2021/04/25 04:44:17;;;;;;;8.60;6.80;;;12.20;78.60;19.90;99692.00;;;;5051701;28;20170;-70
2021/04/25 04:46:42;;;;;;;8.43;6.90;;;12.20;78.60;19.70;99687.00;;;;5051107;28;20973;-69
2021/04/25 04:49:08;;;;;;;9.10;7.17;;;12.20;78.60;19.80;99690.00;;;;5033559;28;20422;-69
2021/04/25 04:51:34;;;;;;;10.13;7.73;;;12.20;78.60;19.80;99688.00;;;;5000363;28;20206;-70
2021/04/25 04:54:00;;;;;;;10.03;7.50;;;12.20;78.60;19.70;99696.00;;;;5034204;28;20655;-69
2021/04/25 04:56:26;;;;;;;8.50;6.90;;;12.20;78.50;19.70;99693.00;;;;5032585;28;20522;-70
2021/04/25 04:58:51;;;;;;;9.57;6.87;;;12.20;78.60;19.60;99699.00;;;;5017449;28;20241;-71
2021/04/25 05:01:17;;;;;;;9.17;6.70;;;12.20;78.50;19.60;99707.00;;;;5049885;28;20916;-71
2021/04/25 05:03:43;;;;;;;10.90;7.97;;;12.20;78.60;19.60;99704.00;;;;5032935;28;20182;-71
2021/04/25 05:06:09;;;;;;;9.00;6.50;;;12.20;78.50;19.80;99702.00;;;;5033275;28;20178;-71
2021/04/25 05:08:34;;;;;;;9.10;6.97;;;12.20;78.50;19.80;99697.00;;;;5050131;28;20648;-70
2021/04/25 05:11:04;;;;;;;9.23;6.90;;;12.20;78.50;19.70;99693.00;;;;5032942;28;20186;-70
2021/04/25 05:13:30;;;;;;;8.27;7.20;;;12.20;78.50;19.60;99690.00;;;;5017241;28;20272;-70
2021/04/25 05:15:56;;;;;;;10.47;8.47;;;12.20;78.50;19.60;99695.00;;;;5049089;28;20518;-71
2021/04/25 05:18:21;;;;;;;9.90;7.60;;;12.20;78.60;19.70;99695.00;;;;5050219;28;20217;-70
2021/04/25 05:20:47;;;;;;;8.83;6.93;;;12.20;78.50;19.70;99696.00;;;;5049502;28;20263;-71
2021/04/25 05:23:13;;;;;;;8.30;6.77;;;12.20;78.60;19.80;99694.00;;;;5049916;28;20198;-70
2021/04/25 05:25:39;;;;;;;8.60;7.17;;;12.20;78.50;19.80;99706.00;;;;5049209;28;20184;-70
2021/04/25 05:28:04;;;;;;;8.83;6.40;;;12.20;78.50;19.80;99703.00;;;;5032943;28;20248;-70
2021/04/25 05:30:30;;;;;;;10.63;7.47;;;12.20;78.50;19.70;99710.00;;;;5032008;28;20240;-71
2021/04/25 05:32:56;;;;;;;8.10;6.30;;;12.20;78.50;19.80;99702.00;;;;5049731;28;20226;-70
2021/04/25 05:35:22;;;;;;;9.20;7.13;;;12.20;78.50;19.60;99714.00;;;;5049689;28;20960;-70
2021/04/25 05:37:47;;;;;;;8.80;6.70;;;12.20;78.50;19.70;99699.00;;;;5049985;28;20213;-70
2021/04/25 05:40:14;;;;;;;9.80;7.00;;;12.20;78.40;19.50;99706.00;;;;5049854;28;20197;-71
2021/04/25 05:42:40;;;;;;;9.20;6.43;;;12.20;78.50;19.60;99710.00;;;;5016024;28;20464;-70
2021/04/25 05:45:07;;;;;;;8.60;7.30;;;12.20;79.20;19.60;99710.00;;;;5015977;28;20505;-71
2021/04/25 05:47:33;;;;;;;8.27;6.67;;;12.20;78.40;19.50;99717.00;;;;5016275;28;20479;-70
2021/04/25 05:49:59;;;;;;;7.73;6.33;;;12.20;78.40;19.60;99717.00;;;;5049411;28;20419;-70
2021/04/25 05:52:24;;;;;;;9.20;7.67;;;12.20;78.50;19.60;99704.00;;;;5048341;28;20815;-71
2021/04/25 05:54:50;;;;;;;9.57;7.13;;;12.20;78.40;19.60;99722.00;;;;5016066;28;20527;-70
2021/04/25 05:57:16;;;;;;;8.70;6.73;;;12.20;78.40;19.80;99717.00;;;;5048882;28;20202;-71
2021/04/25 05:59:41;;;;;;;9.37;7.17;;;12.20;78.50;19.70;99729.00;;;;5032034;28;20663;-70
2021/04/25 06:02:07;;;;;;;9.17;6.90;;;12.20;78.50;19.70;99727.00;;;;5050506;28;20229;-71
2021/04/25 06:04:33;;;;;;;10.60;6.70;;;12.20;78.50;19.80;99728.00;;;;5049138;28;20182;-70
2021/04/25 06:07:00;;;;;;;8.80;6.93;;;12.20;78.50;19.80;99724.00;;;;5015730;28;20281;-70
2021/04/25 06:09:25;;;;;;;9.63;7.20;;;12.10;78.40;19.50;99731.00;;;;5032713;28;20436;-71
2021/04/25 06:11:52;;;;;;;8.60;6.13;;;12.20;78.50;19.80;99723.00;;;;5016011;28;20458;-71
2021/04/25 06:14:18;;;;;;;8.47;6.50;;;12.20;78.60;19.60;99730.00;;;;5015609;28;20179;-70
2021/04/25 06:16:43;;;;;;;7.73;5.80;;;12.20;78.60;19.70;99730.00;;;;5067573;28;20442;-71
2021/04/25 06:19:09;;;;;;;10.00;6.60;;;12.20;78.60;19.70;99717.00;;;;5051514;28;20609;-71
2021/04/25 06:21:35;;;;;;;7.73;6.73;;;12.20;78.50;19.70;99722.00;;;;5034076;28;20236;-71
2021/04/25 06:24:00;;;;;;;9.37;5.70;;;12.20;78.50;19.60;99713.00;;;;5051969;28;20185;-70
2021/04/25 06:26:26;;;;;;;8.47;6.40;;;12.20;78.60;19.70;99728.00;;;;5067865;28;20197;-71
2021/04/25 06:28:52;;;;;;;8.60;6.43;;;12.20;78.50;19.60;99713.00;;;;5067881;28;20205;-71
2021/04/25 06:31:18;;;;;;;8.40;6.53;;;12.20;78.50;19.70;99715.00;;;;5067684;28;20643;-71
2021/04/25 06:33:45;;;;;;;8.60;6.00;;;12.20;78.60;19.80;99711.00;;;;5066793;28;20464;-70
2021/04/25 06:36:12;;;;;;;7.93;7.13;;;12.20;78.50;19.70;99717.00;;;;5035373;28;20441;-72
2021/04/25 06:38:38;;;;;;;7.10;5.90;;;12.20;78.60;19.70;99705.00;;;;5051004;28;20438;-71
2021/04/25 06:41:03;;;;;;;10.00;6.83;;;12.20;78.60;19.70;99718.00;;;;5067718;28;20390;-71
2021/04/25 06:43:31;;;;;;;8.57;6.13;;;12.20;78.70;19.70;99714.00;;;;5068068;28;20181;-72
2021/04/25 06:45:57;;;;;;;9.00;5.77;;;12.20;78.70;19.80;99718.00;;;;5068428;28;20173;-72
2021/04/25 06:48:23;;;;;;;7.17;5.70;;;12.20;78.60;19.80;99719.00;;;;5068877;28;20502;-71
2021/04/25 06:50:49;;;;;;;7.70;6.50;;;12.20;78.70;19.90;99715.00;;;;5068943;28;20472;-71
2021/04/25 06:53:15;;;;;;;7.23;5.60;;;12.20;78.80;19.90;99714.00;;;;5069791;28;20651;-72
2021/04/25 06:55:41;;;;;;;7.57;5.97;;;12.10;78.60;19.90;99712.00;;;;5068306;28;20276;-71
2021/04/25 06:58:06;;;;;;;8.60;5.50;;;12.20;78.80;19.70;99717.00;;;;5069722;28;20200;-71
2021/04/25 07:00:32;;;;;;;7.80;5.80;;;12.20;78.70;19.80;99719.00;;;;5069218;28;20456;-70
2021/04/25 07:02:58;;;;;;;9.40;6.40;;;12.20;78.80;19.90;99682.00;;;;5051329;28;20251;-71
2021/04/25 07:05:25;;;;;;;8.77;6.53;;;12.20;78.80;19.80;99716.00;;;;5052007;28;20183;-72
2021/04/25 07:07:51;;;;;;;8.77;6.57;;;12.20;78.80;19.90;99724.00;;;;5038048;28;20463;-71
2021/04/25 07:10:16;;;;;;;8.00;6.60;;;12.20;78.80;19.90;99726.00;;;;5038932;28;20406;-72
2021/04/25 07:12:42;;;;;;;7.63;6.00;;;12.20;78.80;20.00;99720.00;;;;5055599;28;20201;-71
2021/04/25 07:15:08;;;;;;;7.60;5.60;;;12.20;78.80;19.90;99720.00;;;;5055174;28;20192;-71
2021/04/25 07:17:34;;;;;;;9.70;6.70;;;12.20;78.80;20.00;99727.00;;;;5072659;28;20796;-72
2021/04/25 07:20:00;;;;;;;8.00;6.40;;;12.20;78.80;19.80;99724.00;;;;5055722;28;20515;-71
2021/04/25 07:22:26;;;;;;;8.40;6.90;;;12.20;78.70;20.00;99727.00;;;;5038267;28;20198;-71
2021/04/25 07:24:52;;;;;;;8.00;5.80;;;12.20;78.80;20.10;99730.00;;;;5066394;28;20421;-72
2021/04/25 07:27:18;;;;;;;7.80;5.93;;;12.20;78.70;19.70;99732.00;;;;5070942;28;20474;-71
2021/04/25 07:29:44;;;;;;;7.83;5.87;;;12.20;78.70;19.90;99733.00;;;;5071182;28;20181;-72
2021/04/25 07:32:10;;;;;;;7.10;5.50;;;12.20;78.80;19.80;99734.00;;;;5054304;28;20832;-71
2021/04/25 07:34:35;;;;;;;9.47;6.60;;;12.20;78.80;19.80;99734.00;;;;5071502;28;20516;-71
2021/04/25 07:37:04;;;;;;;9.23;6.80;;;12.20;78.70;20.10;99732.00;;;;5070700;28;20263;-71
2021/04/25 07:39:35;;;;;;;8.33;5.97;;;12.20;78.70;19.70;99735.00;;;;5071594;28;20223;-71
2021/04/25 07:42:01;;;;;;;8.47;6.03;;;12.20;78.80;19.80;99735.00;;;;5071596;28;20447;-71
2021/04/25 07:44:27;;;;;;;7.70;6.53;;;12.20;78.70;19.70;99727.00;;;;5053679;28;20406;-71
2021/04/25 07:46:53;;;;;;;7.43;5.53;;;12.20;78.80;19.80;99728.00;;;;5070184;28;20491;-72
2021/04/25 07:49:18;;;;;;;8.00;5.83;;;12.20;78.80;19.90;99735.00;;;;5069544;28;20672;-72
2021/04/25 07:51:44;;;;;;;7.53;5.50;;;12.20;78.70;19.90;99742.00;;;;5052208;28;20206;-72
2021/04/25 07:54:10;;;;;;;7.47;5.70;;;12.20;78.90;19.80;99736.00;;;;5067881;28;21003;-71
2021/04/25 07:56:37;;;;;;;7.43;5.67;;;12.20;78.80;20.00;99741.00;;;;5071324;28;20352;-71
2021/04/25 07:59:03;;;;;;;9.87;6.63;;;12.20;78.80;19.80;99733.00;;;;5037252;28;20235;-71
2021/04/25 08:01:29;;;;;;;7.77;5.53;;;12.20;78.80;19.80;99703.00;;;;5054569;28;20542;-72
2021/04/25 08:03:57;;;;;;;8.60;5.70;;;12.20;78.80;19.90;99743.00;;;;5070919;28;20410;-71
2021/04/25 08:06:25;;;;;;;7.97;6.20;;;12.20;78.80;19.90;99737.00;;;;5067145;28;20470;-72
2021/04/25 08:08:51;;;;;;;7.50;5.53;;;12.20;78.80;19.70;99750.00;;;;5053783;28;20421;-71
2021/04/25 08:11:16;;;;;;;9.00;5.67;;;12.20;78.90;19.80;99752.00;;;;5037048;28;20530;-72
2021/04/25 08:13:42;;;;;;;7.70;6.07;;;12.20;78.80;19.80;99746.00;;;;5070317;28;20435;-73
2021/04/25 08:16:08;;;;;;;8.50;5.60;;;12.20;78.80;19.70;99745.00;;;;5070440;28;20643;-72
2021/04/25 08:18:33;;;;;;;8.87;6.70;;;12.20;78.80;19.90;99743.00;;;;5070955;28;20631;-72
2021/04/25 08:20:59;;;;;;;7.70;6.00;;;12.20;78.90;19.80;99736.00;;;;5071689;28;20181;-72
2021/04/25 08:23:25;;;;;;;7.77;5.80;;;12.20;78.90;19.80;99753.00;;;;5070388;28;20188;-72
2021/04/25 08:25:51;;;;;;;7.27;5.10;;;12.20;78.90;19.80;99741.00;;;;5069740;28;20189;-71
2021/04/25 08:28:18;;;;;;;9.30;6.00;;;12.20;78.70;19.70;99745.00;;;;5052848;28;20198;-72
2021/04/25 08:30:44;;;;;;;7.03;5.50;;;12.20;78.80;19.90;99749.00;;;;5070574;28;20173;-72
2021/04/25 08:33:10;;;;;;;8.53;6.47;;;12.20;78.80;19.90;99741.00;;;;5036243;28;20898;-72
2021/04/25 08:35:36;;;;;;;7.50;5.40;;;12.20;78.80;19.90;99756.00;;;;5069754;28;20433;-71
2021/04/25 08:38:01;;;;;;;7.07;5.60;;;12.20;78.90;19.60;99750.00;;;;5070102;28;20197;-72
2021/04/25 08:40:27;;;;;;;6.87;5.50;;;12.30;79.10;20.00;99743.00;;;;5069484;28;20235;-72
2021/04/25 08:42:53;;;;;;;7.83;5.17;;;12.20;79.00;19.80;99747.00;;;;5052810;28;20670;-72
2021/04/25 08:45:19;;;;;;;7.20;5.47;;;12.30;79.10;19.80;99752.00;;;;5036723;28;20659;-73
2021/04/25 08:47:54;;;;;;;7.70;5.50;;;12.30;79.10;19.70;99751.00;;;;5052941;28;20463;-72
2021/04/25 08:50:21;;;;;;;8.67;5.77;;;12.30;79.10;19.80;99751.00;;;;5071136;28;20184;-73
2021/04/25 08:52:47;;;;;;;8.10;5.70;;;12.30;79.00;19.90;99747.00;;;;5054219;28;20460;-72
2021/04/25 08:55:13;;;;;;;8.93;5.40;;;12.30;79.10;19.60;99754.00;;;;5052303;28;20921;-72
2021/04/25 08:57:39;;;;;;;7.67;5.43;;;12.20;79.00;19.70;99760.00;;;;5069739;28;20813;-73
2021/04/25 09:00:06;;;;;;;6.73;5.33;;;12.30;79.10;19.70;99750.00;;;;5070851;28;20247;-72
2021/04/25 09:02:36;;;;;;;7.30;5.40;;;12.30;79.00;19.70;99771.00;;;;5049627;28;20741;-72
2021/04/25 09:05:02;;;;;;;7.73;5.40;;;12.30;79.10;19.80;99765.00;;;;5049012;28;20961;-72
2021/04/25 09:07:28;;;;;;;6.97;5.13;;;12.30;79.00;19.90;99769.00;;;;5048091;28;20435;-72
2021/04/25 09:09:56;;;;;;;7.60;5.53;;;12.30;79.10;19.90;99766.00;;;;5031660;28;20444;-72
2021/04/25 09:12:43;;;;;;;6.43;4.60;;;12.30;79.00;19.70;99769.00;;;;5049605;28;20472;-72
2021/04/25 09:15:12;;;;;;;7.80;6.00;;;12.30;79.10;19.60;99761.00;;;;5032085;28;21030;-72
2021/04/25 09:17:57;;;;;;;7.93;5.53;;;12.30;79.10;19.60;99758.00;;;;5048314;28;20442;-72
2021/04/25 09:20:45;;;;;;;6.40;4.60;;;12.30;79.10;19.70;99758.00;;;;5048997;28;20462;-72
2021/04/25 09:23:25;;;;;;;7.90;5.37;;;12.30;79.00;19.60;99763.00;;;;5049214;28;20492;-72
2021/04/25 09:25:55;;;;;;;6.97;5.40;;;12.30;79.10;19.70;99767.00;;;;5050644;28;20415;-72
2021/04/25 09:28:21;;;;;;;7.73;5.10;;;12.30;79.10;19.60;99762.00;;;;5061173;28;20973;-72
2021/04/25 09:31:00;;;;;;;7.07;5.13;;;12.30;79.00;19.90;99773.00;;;;5051018;28;20538;-73
2021/04/25 09:33:27;;;;;;;7.70;5.50;;;12.30;79.00;19.70;99771.00;;;;5069312;28;20803;-72
2021/04/25 09:35:57;;;;;;;8.83;5.27;;;12.30;79.20;19.80;99767.00;;;;5051561;28;20952;-72
2021/04/25 09:38:23;;;;;;;8.20;5.27;;;12.30;79.00;19.70;99768.00;;;;5068718;28;20524;-72
2021/04/25 09:40:50;;;;;;;6.50;4.90;;;12.40;79.10;19.90;99772.00;;;;5069769;28;20406;-72
2021/04/25 09:43:17;;;;;;;7.07;4.80;;;12.40;79.30;19.80;99769.00;;;;5068049;28;20432;-72
2021/04/25 09:45:54;;;;;;;7.30;5.47;;;12.40;79.40;20.00;99779.00;;;;5068331;28;20421;-72
2021/04/25 09:48:31;;;;;;;6.30;4.90;;;12.40;79.30;19.80;99764.00;;;;5068924;28;20425;-73
2021/04/25 09:51:26;;;;;;;6.43;4.53;;;12.40;79.50;19.80;99768.00;;;;5051202;28;20972;-73
2021/04/25 09:53:55;;;;;;;7.53;4.90;;;12.40;79.50;19.80;99774.00;;;;5050548;28;20513;-75
2021/04/25 09:56:31;;;;;;;8.30;5.43;;;12.40;79.50;20.00;99762.00;;;;5067629;28;20449;-75
2021/04/25 09:58:57;;;;;;;6.97;5.53;;;12.40;78.80;19.70;99762.00;;;;5067835;28;20441;-75
2021/04/25 10:01:41;;;;;;;9.40;6.67;;;12.40;77.70;19.80;99772.00;;;;5070186;28;20443;-76
2021/04/25 10:04:35;;;;;;;10.30;6.87;;;12.40;76.80;20.10;99759.00;;;;5036310;28;20196;-75
2021/04/25 10:07:01;;;;;;;7.13;5.20;;;12.40;76.50;20.00;99756.00;;;;5052402;28;20464;-75
2021/04/25 10:09:28;;;;;;;9.83;6.03;;;12.50;76.30;19.80;99758.00;;;;5035373;28;20406;-75
2021/04/25 10:11:56;;;;;;;9.13;6.07;;;12.40;76.30;20.00;99763.00;;;;5050095;28;20434;-75
2021/04/25 10:14:24;;;;;;;10.33;6.60;;;12.50;76.10;19.70;99760.00;;;;5019135;28;20419;-75
2021/04/25 10:16:50;;;;;;;7.50;5.53;;;12.50;75.60;20.20;99759.00;;;;5035874;28;20455;-75
2021/04/25 10:19:16;;;;;;;9.50;6.90;;;12.50;74.80;20.00;99753.00;;;;5068565;28;20454;-75
2021/04/25 10:21:45;;;;;;;8.43;6.60;;;12.50;76.00;20.20;99744.00;;;;5046870;28;20509;-75
2021/04/25 10:24:19;;;;;;;11.10;7.70;;;12.50;76.00;20.00;99736.00;;;;5016834;28;20261;-75
2021/04/25 10:27:11;;;;;;;9.53;7.57;;;12.50;75.10;20.00;99757.00;;;;5048341;28;20481;-75
2021/04/25 10:29:54;;;;;;;9.97;6.90;;;12.50;75.20;20.00;99745.00;;;;5031245;28;20506;-75
2021/04/25 10:32:20;;;;;;;9.43;6.30;;;12.50;75.10;20.20;99754.00;;;;5031716;28;20445;-75
2021/04/25 10:34:50;;;;;;;8.63;6.87;;;12.50;74.80;20.00;99762.00;;;;5015172;28;20441;-75
2021/04/25 10:37:18;;;;;;;8.87;7.40;;;12.50;74.70;20.00;99762.00;;;;5031454;28;20513;-76
2021/04/25 10:39:47;;;;;;;8.87;6.67;;;12.50;74.40;20.10;99755.00;;;;5034989;28;20475;-75
2021/04/25 10:42:17;;;;;;;9.13;6.90;;;12.50;74.50;20.00;99760.00;;;;5074741;28;20437;-75
2021/04/25 10:47:32;;;;;;;9.30;7.23;;;12.50;74.00;20.10;99753.00;;;;5076143;28;20434;-75
2021/04/25 10:50:01;;;;;;;8.73;6.20;;;12.50;74.00;20.00;99758.00;;;;5056704;28;20822;-75
2021/04/25 10:52:32;;;;;;;12.33;8.30;;;12.60;74.30;20.20;99751.00;;;;5041454;28;20475;-75
2021/04/25 10:55:14;;;;;;;9.30;7.00;;;12.60;74.10;20.00;99742.00;;;;5072488;28;20802;-74